sensor_id;sensor_type;location;lat;lon;timestamp;P1;durP1;ratioP1;P2;durP2;ratioP2
33453;SDS011;39400;49.744;7.012;2022-12-18T00:00:58;4.32;;;2.17;;
33453;SDS011;39400;49.744;7.012;2022-12-18T00:03:23;3.90;;;1.92;;
33453;SDS011;39400;49.744;7.012;2022-12-18T00:05:49;5.07;;;2.55;;
33453;SDS011;39400;49.744;7.012;2022-12-18T00:08:15;5.15;;;1.73;;
33453;SDS011;39400;49.744;7.012;2022-12-18T00:10:41;6.68;;;3.13;;
33453;SDS011;39400;49.744;7.012;2022-12-18T00:13:07;7.20;;;2.67;;
33453;SDS011;39400;49.744;7.012;2022-12-18T00:15:33;5.13;;;2.35;;
33453;SDS011;39400;49.744;7.012;2022-12-18T00:17:59;7.00;;;2.53;;
33453;SDS011;39400;49.744;7.012;2022-12-18T00:20:25;4.68;;;2.35;;
33453;SDS011;39400;49.744;7.012;2022-12-18T00:22:51;4.88;;;2.35;;
33453;SDS011;39400;49.744;7.012;2022-12-18T00:25:17;3.97;;;1.60;;
33453;SDS011;39400;49.744;7.012;2022-12-18T00:27:43;4.35;;;1.92;;
33453;SDS011;39400;49.744;7.012;2022-12-18T00:30:08;4.25;;;2.00;;
33453;SDS011;39400;49.744;7.012;2022-12-18T00:32:34;2.70;;;1.42;;
33453;SDS011;39400;49.744;7.012;2022-12-18T00:35:00;2.72;;;1.45;;
33453;SDS011;39400;49.744;7.012;2022-12-18T00:37:26;4.18;;;1.95;;
33453;SDS011;39400;49.744;7.012;2022-12-18T00:39:51;3.50;;;1.80;;
33453;SDS011;39400;49.744;7.012;2022-12-18T00:42:18;2.42;;;1.45;;
33453;SDS011;39400;49.744;7.012;2022-12-18T00:44:43;3.28;;;1.73;;
33453;SDS011;39400;49.744;7.012;2022-12-18T00:47:09;2.70;;;1.48;;
33453;SDS011;39400;49.744;7.012;2022-12-18T00:49:34;2.30;;;1.35;;
33453;SDS011;39400;49.744;7.012;2022-12-18T00:51:59;3.85;;;2.25;;
33453;SDS011;39400;49.744;7.012;2022-12-18T00:54:25;4.00;;;2.03;;
33453;SDS011;39400;49.744;7.012;2022-12-18T00:56:50;4.15;;;2.20;;
33453;SDS011;39400;49.744;7.012;2022-12-18T00:59:16;2.72;;;1.20;;
33453;SDS011;39400;49.744;7.012;2022-12-18T01:01:43;4.45;;;1.90;;
33453;SDS011;39400;49.744;7.012;2022-12-18T01:04:08;2.95;;;1.52;;
33453;SDS011;39400;49.744;7.012;2022-12-18T01:06:34;3.90;;;1.90;;
33453;SDS011;39400;49.744;7.012;2022-12-18T01:08:59;3.17;;;1.38;;
33453;SDS011;39400;49.744;7.012;2022-12-18T01:11:25;3.08;;;1.50;;
33453;SDS011;39400;49.744;7.012;2022-12-18T01:13:51;4.45;;;1.75;;
33453;SDS011;39400;49.744;7.012;2022-12-18T01:16:17;3.08;;;1.45;;
33453;SDS011;39400;49.744;7.012;2022-12-18T01:18:42;2.70;;;1.17;;
33453;SDS011;39400;49.744;7.012;2022-12-18T01:21:09;4.38;;;1.23;;
33453;SDS011;39400;49.744;7.012;2022-12-18T01:23:36;3.78;;;1.55;;
33453;SDS011;39400;49.744;7.012;2022-12-18T01:26:12;3.63;;;1.58;;
33453;SDS011;39400;49.744;7.012;2022-12-18T01:28:40;3.45;;;1.60;;
33453;SDS011;39400;49.744;7.012;2022-12-18T01:33:38;7.50;;;3.17;;
33453;SDS011;39400;49.744;7.012;2022-12-18T01:36:05;2.05;;;1.05;;
33453;SDS011;39400;49.744;7.012;2022-12-18T01:38:30;3.83;;;1.80;;
33453;SDS011;39400;49.744;7.012;2022-12-18T01:41:00;2.83;;;1.40;;
33453;SDS011;39400;49.744;7.012;2022-12-18T01:46:13;2.53;;;1.30;;
33453;SDS011;39400;49.744;7.012;2022-12-18T01:48:39;4.35;;;1.73;;
33453;SDS011;39400;49.744;7.012;2022-12-18T01:51:06;3.30;;;1.52;;
33453;SDS011;39400;49.744;7.012;2022-12-18T01:53:37;3.00;;;1.40;;
33453;SDS011;39400;49.744;7.012;2022-12-18T01:56:05;3.58;;;1.67;;
33453;SDS011;39400;49.744;7.012;2022-12-18T01:58:39;3.70;;;1.40;;
33453;SDS011;39400;49.744;7.012;2022-12-18T02:01:11;3.92;;;1.52;;
33453;SDS011;39400;49.744;7.012;2022-12-18T02:03:37;2.83;;;1.20;;
33453;SDS011;39400;49.744;7.012;2022-12-18T02:06:49;3.53;;;1.67;;
33453;SDS011;39400;49.744;7.012;2022-12-18T02:11:50;2.85;;;1.45;;
33453;SDS011;39400;49.744;7.012;2022-12-18T02:14:38;5.00;;;1.65;;
33453;SDS011;39400;49.744;7.012;2022-12-18T02:17:28;5.78;;;2.33;;
33453;SDS011;39400;49.744;7.012;2022-12-18T02:25:01;3.03;;;1.38;;
33453;SDS011;39400;49.744;7.012;2022-12-18T02:27:38;4.85;;;2.60;;
33453;SDS011;39400;49.744;7.012;2022-12-18T02:30:06;4.53;;;2.42;;
33453;SDS011;39400;49.744;7.012;2022-12-18T02:32:39;4.45;;;1.80;;
33453;SDS011;39400;49.744;7.012;2022-12-18T02:35:13;4.85;;;1.83;;
33453;SDS011;39400;49.744;7.012;2022-12-18T02:37:43;5.03;;;3.00;;
33453;SDS011;39400;49.744;7.012;2022-12-18T02:40:11;7.53;;;2.30;;
33453;SDS011;39400;49.744;7.012;2022-12-18T02:42:39;5.95;;;2.47;;
33453;SDS011;39400;49.744;7.012;2022-12-18T02:45:06;5.50;;;2.40;;
33453;SDS011;39400;49.744;7.012;2022-12-18T02:47:36;5.20;;;2.30;;
33453;SDS011;39400;49.744;7.012;2022-12-18T02:58:23;6.57;;;2.80;;
33453;SDS011;39400;49.744;7.012;2022-12-18T03:01:13;6.75;;;2.80;;
33453;SDS011;39400;49.744;7.012;2022-12-18T03:03:48;7.78;;;3.03;;
33453;SDS011;39400;49.744;7.012;2022-12-18T03:06:24;6.85;;;3.17;;
33453;SDS011;39400;49.744;7.012;2022-12-18T03:09:12;6.70;;;3.05;;
33453;SDS011;39400;49.744;7.012;2022-12-18T03:11:44;6.88;;;2.83;;
33453;SDS011;39400;49.744;7.012;2022-12-18T03:14:15;7.07;;;3.35;;
33453;SDS011;39400;49.744;7.012;2022-12-18T03:16:46;6.78;;;3.22;;
33453;SDS011;39400;49.744;7.012;2022-12-18T03:19:18;6.72;;;2.90;;
33453;SDS011;39400;49.744;7.012;2022-12-18T03:21:51;7.40;;;4.05;;
33453;SDS011;39400;49.744;7.012;2022-12-18T03:24:19;6.47;;;3.17;;
33453;SDS011;39400;49.744;7.012;2022-12-18T03:26:48;7.32;;;3.33;;
33453;SDS011;39400;49.744;7.012;2022-12-18T03:29:18;5.60;;;3.15;;
33453;SDS011;39400;49.744;7.012;2022-12-18T03:31:49;6.47;;;3.45;;
33453;SDS011;39400;49.744;7.012;2022-12-18T03:34:22;11.63;;;5.88;;
33453;SDS011;39400;49.744;7.012;2022-12-18T03:36:52;6.88;;;3.70;;
33453;SDS011;39400;49.744;7.012;2022-12-18T03:39:18;6.20;;;2.65;;
33453;SDS011;39400;49.744;7.012;2022-12-18T03:44:49;7.28;;;3.90;;
33453;SDS011;39400;49.744;7.012;2022-12-18T03:47:27;8.25;;;3.78;;
33453;SDS011;39400;49.744;7.012;2022-12-18T03:50:06;7.13;;;3.92;;
33453;SDS011;39400;49.744;7.012;2022-12-18T03:52:45;7.72;;;3.60;;
33453;SDS011;39400;49.744;7.012;2022-12-18T03:55:16;7.05;;;3.20;;
33453;SDS011;39400;49.744;7.012;2022-12-18T03:57:47;9.77;;;3.83;;
33453;SDS011;39400;49.744;7.012;2022-12-18T04:00:33;8.13;;;4.10;;
33453;SDS011;39400;49.744;7.012;2022-12-18T04:03:06;6.07;;;3.13;;
33453;SDS011;39400;49.744;7.012;2022-12-18T04:05:40;8.07;;;3.10;;
33453;SDS011;39400;49.744;7.012;2022-12-18T04:08:07;9.45;;;4.07;;
33453;SDS011;39400;49.744;7.012;2022-12-18T04:10:36;6.25;;;3.25;;
33453;SDS011;39400;49.744;7.012;2022-12-18T04:13:02;6.22;;;3.47;;
33453;SDS011;39400;49.744;7.012;2022-12-18T04:15:28;7.60;;;4.05;;
33453;SDS011;39400;49.744;7.012;2022-12-18T04:17:54;7.53;;;3.78;;
33453;SDS011;39400;49.744;7.012;2022-12-18T04:20:23;8.82;;;3.47;;
33453;SDS011;39400;49.744;7.012;2022-12-18T04:22:48;7.47;;;3.70;;
33453;SDS011;39400;49.744;7.012;2022-12-18T04:25:13;8.75;;;3.97;;
33453;SDS011;39400;49.744;7.012;2022-12-18T04:27:50;8.43;;;3.90;;
33453;SDS011;39400;49.744;7.012;2022-12-18T04:30:16;6.50;;;3.67;;
33453;SDS011;39400;49.744;7.012;2022-12-18T04:32:42;8.13;;;4.07;;
33453;SDS011;39400;49.744;7.012;2022-12-18T04:35:08;8.43;;;3.80;;
33453;SDS011;39400;49.744;7.012;2022-12-18T04:37:33;9.73;;;4.45;;
33453;SDS011;39400;49.744;7.012;2022-12-18T04:39:59;8.88;;;3.75;;
33453;SDS011;39400;49.744;7.012;2022-12-18T04:42:32;10.15;;;4.30;;
33453;SDS011;39400;49.744;7.012;2022-12-18T04:44:57;11.35;;;3.67;;
33453;SDS011;39400;49.744;7.012;2022-12-18T04:47:23;8.75;;;3.67;;
33453;SDS011;39400;49.744;7.012;2022-12-18T04:49:48;8.48;;;3.40;;
33453;SDS011;39400;49.744;7.012;2022-12-18T04:52:13;6.43;;;3.42;;
33453;SDS011;39400;49.744;7.012;2022-12-18T04:54:39;7.63;;;3.15;;
33453;SDS011;39400;49.744;7.012;2022-12-18T04:57:04;7.55;;;3.40;;
33453;SDS011;39400;49.744;7.012;2022-12-18T04:59:29;7.78;;;2.65;;
33453;SDS011;39400;49.744;7.012;2022-12-18T05:01:55;6.25;;;2.40;;
33453;SDS011;39400;49.744;7.012;2022-12-18T05:04:20;7.43;;;3.42;;
33453;SDS011;39400;49.744;7.012;2022-12-18T05:06:45;11.20;;;3.40;;
33453;SDS011;39400;49.744;7.012;2022-12-18T05:09:11;7.88;;;3.60;;
33453;SDS011;39400;49.744;7.012;2022-12-18T05:11:36;7.78;;;3.83;;
33453;SDS011;39400;49.744;7.012;2022-12-18T05:14:01;7.85;;;3.38;;
33453;SDS011;39400;49.744;7.012;2022-12-18T05:16:27;9.05;;;4.07;;
33453;SDS011;39400;49.744;7.012;2022-12-18T05:18:52;8.02;;;3.70;;
33453;SDS011;39400;49.744;7.012;2022-12-18T05:21:18;9.85;;;5.15;;
33453;SDS011;39400;49.744;7.012;2022-12-18T05:23:43;10.57;;;4.55;;
33453;SDS011;39400;49.744;7.012;2022-12-18T05:26:08;10.35;;;4.57;;
33453;SDS011;39400;49.744;7.012;2022-12-18T05:28:38;11.63;;;5.40;;
33453;SDS011;39400;49.744;7.012;2022-12-18T05:31:04;8.85;;;4.82;;
33453;SDS011;39400;49.744;7.012;2022-12-18T05:33:30;11.73;;;6.13;;
33453;SDS011;39400;49.744;7.012;2022-12-18T05:35:58;11.18;;;4.60;;
33453;SDS011;39400;49.744;7.012;2022-12-18T05:38:29;11.00;;;4.65;;
33453;SDS011;39400;49.744;7.012;2022-12-18T05:40:56;10.45;;;4.93;;
33453;SDS011;39400;49.744;7.012;2022-12-18T05:43:22;10.02;;;4.60;;
33453;SDS011;39400;49.744;7.012;2022-12-18T05:45:49;12.13;;;4.60;;
33453;SDS011;39400;49.744;7.012;2022-12-18T05:48:16;11.27;;;5.32;;
33453;SDS011;39400;49.744;7.012;2022-12-18T05:50:42;11.48;;;5.03;;
33453;SDS011;39400;49.744;7.012;2022-12-18T05:53:09;10.45;;;4.65;;
33453;SDS011;39400;49.744;7.012;2022-12-18T05:55:35;12.35;;;5.82;;
33453;SDS011;39400;49.744;7.012;2022-12-18T05:58:02;8.55;;;4.18;;
33453;SDS011;39400;49.744;7.012;2022-12-18T06:00:29;12.23;;;5.60;;
33453;SDS011;39400;49.744;7.012;2022-12-18T06:02:55;15.00;;;6.55;;
33453;SDS011;39400;49.744;7.012;2022-12-18T06:05:20;12.55;;;5.78;;
33453;SDS011;39400;49.744;7.012;2022-12-18T06:07:45;10.35;;;5.15;;
33453;SDS011;39400;49.744;7.012;2022-12-18T06:10:11;12.00;;;5.82;;
33453;SDS011;39400;49.744;7.012;2022-12-18T06:12:36;12.45;;;4.63;;
33453;SDS011;39400;49.744;7.012;2022-12-18T06:15:02;13.45;;;6.13;;
33453;SDS011;39400;49.744;7.012;2022-12-18T06:17:30;14.98;;;6.30;;
33453;SDS011;39400;49.744;7.012;2022-12-18T06:19:56;18.17;;;7.17;;
33453;SDS011;39400;49.744;7.012;2022-12-18T06:22:22;12.63;;;6.32;;
33453;SDS011;39400;49.744;7.012;2022-12-18T06:24:47;11.93;;;5.78;;
33453;SDS011;39400;49.744;7.012;2022-12-18T06:27:13;15.93;;;7.97;;
33453;SDS011;39400;49.744;7.012;2022-12-18T06:29:38;13.45;;;5.97;;
33453;SDS011;39400;49.744;7.012;2022-12-18T06:32:03;15.52;;;6.80;;
33453;SDS011;39400;49.744;7.012;2022-12-18T06:34:32;12.77;;;5.97;;
33453;SDS011;39400;49.744;7.012;2022-12-18T06:36:58;11.20;;;5.55;;
33453;SDS011;39400;49.744;7.012;2022-12-18T06:39:23;12.73;;;5.90;;
33453;SDS011;39400;49.744;7.012;2022-12-18T06:41:49;15.63;;;7.50;;
33453;SDS011;39400;49.744;7.012;2022-12-18T06:44:15;15.93;;;8.20;;
33453;SDS011;39400;49.744;7.012;2022-12-18T06:46:40;14.93;;;7.57;;
33453;SDS011;39400;49.744;7.012;2022-12-18T06:49:05;13.98;;;7.43;;
33453;SDS011;39400;49.744;7.012;2022-12-18T06:51:31;15.35;;;8.43;;
33453;SDS011;39400;49.744;7.012;2022-12-18T06:53:56;15.27;;;8.10;;
33453;SDS011;39400;49.744;7.012;2022-12-18T06:56:22;16.10;;;7.80;;
33453;SDS011;39400;49.744;7.012;2022-12-18T06:58:50;15.02;;;7.10;;
33453;SDS011;39400;49.744;7.012;2022-12-18T07:01:15;16.23;;;9.05;;
33453;SDS011;39400;49.744;7.012;2022-12-18T07:03:41;17.35;;;8.15;;
33453;SDS011;39400;49.744;7.012;2022-12-18T07:06:12;14.50;;;6.93;;
33453;SDS011;39400;49.744;7.012;2022-12-18T07:08:39;14.88;;;7.25;;
33453;SDS011;39400;49.744;7.012;2022-12-18T07:11:04;18.55;;;7.60;;
33453;SDS011;39400;49.744;7.012;2022-12-18T07:13:29;15.77;;;8.32;;
33453;SDS011;39400;49.744;7.012;2022-12-18T07:15:55;24.58;;;11.73;;
33453;SDS011;39400;49.744;7.012;2022-12-18T07:18:20;23.33;;;11.20;;
33453;SDS011;39400;49.744;7.012;2022-12-18T07:20:46;19.23;;;8.57;;
33453;SDS011;39400;49.744;7.012;2022-12-18T07:23:11;17.15;;;8.05;;
33453;SDS011;39400;49.744;7.012;2022-12-18T07:25:36;13.95;;;8.30;;
33453;SDS011;39400;49.744;7.012;2022-12-18T07:28:02;15.05;;;7.20;;
33453;SDS011;39400;49.744;7.012;2022-12-18T07:30:28;12.77;;;6.10;;
33453;SDS011;39400;49.744;7.012;2022-12-18T07:32:53;13.50;;;6.47;;
33453;SDS011;39400;49.744;7.012;2022-12-18T07:35:19;13.00;;;6.45;;
33453;SDS011;39400;49.744;7.012;2022-12-18T07:37:44;18.55;;;8.50;;
33453;SDS011;39400;49.744;7.012;2022-12-18T07:40:09;26.52;;;11.73;;
33453;SDS011;39400;49.744;7.012;2022-12-18T07:42:35;31.25;;;14.93;;
33453;SDS011;39400;49.744;7.012;2022-12-18T07:45:02;28.25;;;14.02;;
33453;SDS011;39400;49.744;7.012;2022-12-18T07:47:28;22.77;;;10.63;;
33453;SDS011;39400;49.744;7.012;2022-12-18T07:49:58;22.90;;;9.95;;
33453;SDS011;39400;49.744;7.012;2022-12-18T07:52:24;23.27;;;9.57;;
33453;SDS011;39400;49.744;7.012;2022-12-18T07:54:49;17.63;;;8.63;;
33453;SDS011;39400;49.744;7.012;2022-12-18T07:57:14;18.83;;;7.47;;
33453;SDS011;39400;49.744;7.012;2022-12-18T07:59:40;14.32;;;6.47;;
33453;SDS011;39400;49.744;7.012;2022-12-18T08:02:05;16.52;;;7.72;;
33453;SDS011;39400;49.744;7.012;2022-12-18T08:04:30;23.77;;;9.55;;
33453;SDS011;39400;49.744;7.012;2022-12-18T08:06:56;16.63;;;8.75;;
33453;SDS011;39400;49.744;7.012;2022-12-18T08:09:21;17.33;;;8.68;;
33453;SDS011;39400;49.744;7.012;2022-12-18T08:11:46;14.82;;;7.20;;
33453;SDS011;39400;49.744;7.012;2022-12-18T08:14:11;15.00;;;6.93;;
33453;SDS011;39400;49.744;7.012;2022-12-18T08:16:37;17.10;;;8.18;;
33453;SDS011;39400;49.744;7.012;2022-12-18T08:19:02;16.83;;;7.25;;
33453;SDS011;39400;49.744;7.012;2022-12-18T08:21:28;17.70;;;8.55;;
33453;SDS011;39400;49.744;7.012;2022-12-18T08:23:56;15.18;;;7.80;;
33453;SDS011;39400;49.744;7.012;2022-12-18T08:26:24;16.27;;;7.97;;
33453;SDS011;39400;49.744;7.012;2022-12-18T08:28:51;17.52;;;8.35;;
33453;SDS011;39400;49.744;7.012;2022-12-18T08:31:17;20.20;;;11.23;;
33453;SDS011;39400;49.744;7.012;2022-12-18T08:33:43;20.45;;;10.00;;
33453;SDS011;39400;49.744;7.012;2022-12-18T08:36:08;37.65;;;13.30;;
33453;SDS011;39400;49.744;7.012;2022-12-18T08:38:34;52.53;;;18.45;;
33453;SDS011;39400;49.744;7.012;2022-12-18T08:41:01;30.20;;;15.70;;
33453;SDS011;39400;49.744;7.012;2022-12-18T08:43:30;27.40;;;11.50;;
33453;SDS011;39400;49.744;7.012;2022-12-18T08:45:56;21.88;;;10.55;;
33453;SDS011;39400;49.744;7.012;2022-12-18T08:48:21;18.10;;;8.35;;
33453;SDS011;39400;49.744;7.012;2022-12-18T08:50:54;20.15;;;9.63;;
33453;SDS011;39400;49.744;7.012;2022-12-18T08:53:20;18.27;;;9.73;;
33453;SDS011;39400;49.744;7.012;2022-12-18T08:55:45;24.58;;;12.95;;
33453;SDS011;39400;49.744;7.012;2022-12-18T08:58:11;19.00;;;10.10;;
33453;SDS011;39400;49.744;7.012;2022-12-18T09:00:36;24.92;;;10.20;;
33453;SDS011;39400;49.744;7.012;2022-12-18T09:03:01;14.73;;;7.50;;
33453;SDS011;39400;49.744;7.012;2022-12-18T09:05:27;18.42;;;9.57;;
33453;SDS011;39400;49.744;7.012;2022-12-18T09:07:52;21.33;;;11.88;;
33453;SDS011;39400;49.744;7.012;2022-12-18T09:10:17;22.48;;;11.10;;
33453;SDS011;39400;49.744;7.012;2022-12-18T09:12:43;22.42;;;11.20;;
33453;SDS011;39400;49.744;7.012;2022-12-18T09:15:08;18.40;;;9.65;;
33453;SDS011;39400;49.744;7.012;2022-12-18T09:17:34;18.27;;;10.30;;
33453;SDS011;39400;49.744;7.012;2022-12-18T09:19:59;21.02;;;10.30;;
33453;SDS011;39400;49.744;7.012;2022-12-18T09:22:24;18.65;;;9.10;;
33453;SDS011;39400;49.744;7.012;2022-12-18T09:24:49;20.60;;;10.13;;
33453;SDS011;39400;49.744;7.012;2022-12-18T09:27:15;22.08;;;10.32;;
33453;SDS011;39400;49.744;7.012;2022-12-18T09:29:40;18.77;;;9.93;;
33453;SDS011;39400;49.744;7.012;2022-12-18T09:32:05;21.95;;;10.02;;
33453;SDS011;39400;49.744;7.012;2022-12-18T09:34:31;19.05;;;9.98;;
33453;SDS011;39400;49.744;7.012;2022-12-18T09:36:56;19.70;;;9.25;;
33453;SDS011;39400;49.744;7.012;2022-12-18T09:39:21;16.38;;;7.95;;
33453;SDS011;39400;49.744;7.012;2022-12-18T09:41:47;22.08;;;9.95;;
33453;SDS011;39400;49.744;7.012;2022-12-18T09:46:52;19.90;;;8.45;;
33453;SDS011;39400;49.744;7.012;2022-12-18T09:49:25;16.08;;;8.95;;
33453;SDS011;39400;49.744;7.012;2022-12-18T09:54:43;19.60;;;8.30;;
33453;SDS011;39400;49.744;7.012;2022-12-18T09:57:18;17.92;;;9.43;;
33453;SDS011;39400;49.744;7.012;2022-12-18T09:59:51;17.90;;;8.70;;
33453;SDS011;39400;49.744;7.012;2022-12-18T10:02:20;17.73;;;9.40;;
33453;SDS011;39400;49.744;7.012;2022-12-18T10:04:58;18.30;;;8.68;;
33453;SDS011;39400;49.744;7.012;2022-12-18T10:15:30;19.33;;;9.57;;
33453;SDS011;39400;49.744;7.012;2022-12-18T10:18:07;19.50;;;10.15;;
33453;SDS011;39400;49.744;7.012;2022-12-18T10:20:46;16.88;;;9.20;;
33453;SDS011;39400;49.744;7.012;2022-12-18T10:28:24;15.57;;;8.57;;
33453;SDS011;39400;49.744;7.012;2022-12-18T10:30:51;16.42;;;9.30;;
33453;SDS011;39400;49.744;7.012;2022-12-18T10:33:17;16.63;;;8.20;;
33453;SDS011;39400;49.744;7.012;2022-12-18T10:35:45;15.95;;;8.93;;
33453;SDS011;39400;49.744;7.012;2022-12-18T10:43:21;15.18;;;8.32;;
33453;SDS011;39400;49.744;7.012;2022-12-18T10:51:22;14.00;;;6.80;;
33453;SDS011;39400;49.744;7.012;2022-12-18T10:54:32;17.27;;;7.75;;
33453;SDS011;39400;49.744;7.012;2022-12-18T10:56:43;18.10;;;8.13;;
33453;SDS011;39400;49.744;7.012;2022-12-18T10:59:09;15.85;;;9.00;;
33453;SDS011;39400;49.744;7.012;2022-12-18T11:01:50;14.30;;;7.72;;
33453;SDS011;39400;49.744;7.012;2022-12-18T11:04:24;13.13;;;6.72;;
33453;SDS011;39400;49.744;7.012;2022-12-18T11:07:07;14.10;;;7.00;;
33453;SDS011;39400;49.744;7.012;2022-12-18T11:09:34;15.25;;;6.90;;
33453;SDS011;39400;49.744;7.012;2022-12-18T11:12:02;13.40;;;6.90;;
33453;SDS011;39400;49.744;7.012;2022-12-18T11:14:33;14.77;;;7.25;;
33453;SDS011;39400;49.744;7.012;2022-12-18T11:17:16;11.75;;;6.07;;
33453;SDS011;39400;49.744;7.012;2022-12-18T11:19:44;12.10;;;6.20;;
33453;SDS011;39400;49.744;7.012;2022-12-18T11:22:28;15.98;;;8.38;;
33453;SDS011;39400;49.744;7.012;2022-12-18T11:27:57;11.23;;;5.85;;
33453;SDS011;39400;49.744;7.012;2022-12-18T11:30:34;10.68;;;5.75;;
33453;SDS011;39400;49.744;7.012;2022-12-18T11:33:03;18.05;;;8.98;;
33453;SDS011;39400;49.744;7.012;2022-12-18T11:35:47;15.55;;;7.95;;
33453;SDS011;39400;49.744;7.012;2022-12-18T11:38:32;15.35;;;6.57;;
33453;SDS011;39400;49.744;7.012;2022-12-18T11:41:05;16.05;;;8.00;;
33453;SDS011;39400;49.744;7.012;2022-12-18T11:43:48;14.93;;;8.02;;
33453;SDS011;39400;49.744;7.012;2022-12-18T11:46:37;18.67;;;8.00;;
33453;SDS011;39400;49.744;7.012;2022-12-18T11:49:12;15.60;;;8.00;;
33453;SDS011;39400;49.744;7.012;2022-12-18T11:51:49;15.05;;;7.65;;
33453;SDS011;39400;49.744;7.012;2022-12-18T11:54:19;17.77;;;8.55;;
33453;SDS011;39400;49.744;7.012;2022-12-18T11:56:55;17.73;;;8.77;;
33453;SDS011;39400;49.744;7.012;2022-12-18T11:59:30;18.75;;;10.65;;
33453;SDS011;39400;49.744;7.012;2022-12-18T12:02:28;17.08;;;9.10;;
33453;SDS011;39400;49.744;7.012;2022-12-18T12:16:06;17.08;;;9.25;;
33453;SDS011;39400;49.744;7.012;2022-12-18T12:18:43;18.00;;;10.38;;
33453;SDS011;39400;49.744;7.012;2022-12-18T12:29:28;17.88;;;8.90;;
33453;SDS011;39400;49.744;7.012;2022-12-18T12:37:53;18.65;;;7.90;;
33453;SDS011;39400;49.744;7.012;2022-12-18T12:40:31;15.55;;;7.43;;
33453;SDS011;39400;49.744;7.012;2022-12-18T12:43:02;18.05;;;8.50;;
33453;SDS011;39400;49.744;7.012;2022-12-18T12:48:38;18.60;;;8.27;;
33453;SDS011;39400;49.744;7.012;2022-12-18T12:51:25;13.40;;;7.20;;
33453;SDS011;39400;49.744;7.012;2022-12-18T12:53:53;13.48;;;7.10;;
33453;SDS011;39400;49.744;7.012;2022-12-18T12:56:21;13.88;;;6.97;;
33453;SDS011;39400;49.744;7.012;2022-12-18T13:01:40;13.45;;;7.70;;
33453;SDS011;39400;49.744;7.012;2022-12-18T13:07:05;18.40;;;8.25;;
33453;SDS011;39400;49.744;7.012;2022-12-18T13:10:10;12.15;;;6.43;;
33453;SDS011;39400;49.744;7.012;2022-12-18T13:12:51;13.05;;;6.68;;
33453;SDS011;39400;49.744;7.012;2022-12-18T13:15:25;29.77;;;12.88;;
33453;SDS011;39400;49.744;7.012;2022-12-18T13:20:35;13.95;;;7.57;;
33453;SDS011;39400;49.744;7.012;2022-12-18T13:25:50;15.73;;;8.18;;
33453;SDS011;39400;49.744;7.012;2022-12-18T13:31:10;18.15;;;9.32;;
33453;SDS011;39400;49.744;7.012;2022-12-18T13:36:12;12.30;;;6.97;;
33453;SDS011;39400;49.744;7.012;2022-12-18T13:38:47;13.98;;;7.28;;
33453;SDS011;39400;49.744;7.012;2022-12-18T13:41:35;16.60;;;8.35;;
33453;SDS011;39400;49.744;7.012;2022-12-18T13:44:11;12.48;;;7.03;;
33453;SDS011;39400;49.744;7.012;2022-12-18T13:46:43;16.00;;;8.02;;
33453;SDS011;39400;49.744;7.012;2022-12-18T13:51:38;19.77;;;10.00;;
33453;SDS011;39400;49.744;7.012;2022-12-18T13:57:00;17.42;;;8.40;;
33453;SDS011;39400;49.744;7.012;2022-12-18T13:59:26;19.33;;;10.05;;
33453;SDS011;39400;49.744;7.012;2022-12-18T14:01:58;39.28;;;18.02;;
33453;SDS011;39400;49.744;7.012;2022-12-18T14:04:32;18.67;;;10.45;;
33453;SDS011;39400;49.744;7.012;2022-12-18T14:07:03;19.60;;;11.10;;
33453;SDS011;39400;49.744;7.012;2022-12-18T14:09:33;16.92;;;8.27;;
33453;SDS011;39400;49.744;7.012;2022-12-18T14:12:01;15.40;;;7.97;;
33453;SDS011;39400;49.744;7.012;2022-12-18T14:14:27;13.48;;;7.00;;
33453;SDS011;39400;49.744;7.012;2022-12-18T14:16:53;13.38;;;7.50;;
33453;SDS011;39400;49.744;7.012;2022-12-18T14:19:19;17.02;;;8.65;;
33453;SDS011;39400;49.744;7.012;2022-12-18T14:21:45;14.50;;;8.07;;
33453;SDS011;39400;49.744;7.012;2022-12-18T14:26:46;17.70;;;7.75;;
33453;SDS011;39400;49.744;7.012;2022-12-18T14:32:10;16.10;;;7.38;;
33453;SDS011;39400;49.744;7.012;2022-12-18T14:34:37;17.17;;;8.90;;
33453;SDS011;39400;49.744;7.012;2022-12-18T14:37:03;15.32;;;7.75;;
33453;SDS011;39400;49.744;7.012;2022-12-18T14:39:29;17.23;;;8.85;;
33453;SDS011;39400;49.744;7.012;2022-12-18T14:41:54;18.83;;;10.48;;
33453;SDS011;39400;49.744;7.012;2022-12-18T14:44:19;15.25;;;8.30;;
33453;SDS011;39400;49.744;7.012;2022-12-18T14:46:45;19.17;;;9.55;;
33453;SDS011;39400;49.744;7.012;2022-12-18T14:52:02;17.23;;;9.00;;
33453;SDS011;39400;49.744;7.012;2022-12-18T14:54:30;19.92;;;10.18;;
33453;SDS011;39400;49.744;7.012;2022-12-18T14:57:15;16.83;;;9.52;;
33453;SDS011;39400;49.744;7.012;2022-12-18T14:59:47;20.35;;;9.18;;
33453;SDS011;39400;49.744;7.012;2022-12-18T15:02:25;19.00;;;9.15;;
33453;SDS011;39400;49.744;7.012;2022-12-18T15:07:40;26.15;;;11.70;;
33453;SDS011;39400;49.744;7.012;2022-12-18T15:12:42;20.02;;;10.23;;
33453;SDS011;39400;49.744;7.012;2022-12-18T15:23:24;20.75;;;9.13;;
33453;SDS011;39400;49.744;7.012;2022-12-18T15:25:56;24.10;;;12.32;;
33453;SDS011;39400;49.744;7.012;2022-12-18T15:33:36;19.20;;;10.55;;
33453;SDS011;39400;49.744;7.012;2022-12-18T15:36:04;22.88;;;11.20;;
33453;SDS011;39400;49.744;7.012;2022-12-18T15:38:33;18.63;;;9.02;;
33453;SDS011;39400;49.744;7.012;2022-12-18T15:40:58;23.63;;;12.07;;
33453;SDS011;39400;49.744;7.012;2022-12-18T15:43:24;22.80;;;12.05;;
33453;SDS011;39400;49.744;7.012;2022-12-18T15:45:50;24.73;;;12.27;;
33453;SDS011;39400;49.744;7.012;2022-12-18T15:48:22;30.58;;;14.15;;
33453;SDS011;39400;49.744;7.012;2022-12-18T15:50:48;29.27;;;14.77;;
33453;SDS011;39400;49.744;7.012;2022-12-18T15:53:15;30.30;;;13.93;;
33453;SDS011;39400;49.744;7.012;2022-12-18T15:55:41;29.48;;;13.80;;
33453;SDS011;39400;49.744;7.012;2022-12-18T15:58:07;29.38;;;14.48;;
33453;SDS011;39400;49.744;7.012;2022-12-18T16:00:34;35.95;;;17.52;;
33453;SDS011;39400;49.744;7.012;2022-12-18T16:03:01;36.75;;;17.42;;
33453;SDS011;39400;49.744;7.012;2022-12-18T16:05:27;35.10;;;17.95;;
33453;SDS011;39400;49.744;7.012;2022-12-18T16:07:52;30.48;;;14.60;;
33453;SDS011;39400;49.744;7.012;2022-12-18T16:10:18;27.80;;;14.88;;
33453;SDS011;39400;49.744;7.012;2022-12-18T16:12:44;30.60;;;14.70;;
33453;SDS011;39400;49.744;7.012;2022-12-18T16:15:10;32.00;;;16.80;;
33453;SDS011;39400;49.744;7.012;2022-12-18T16:17:39;31.55;;;14.23;;
33453;SDS011;39400;49.744;7.012;2022-12-18T16:20:05;30.77;;;14.85;;
33453;SDS011;39400;49.744;7.012;2022-12-18T16:22:31;28.25;;;13.63;;
33453;SDS011;39400;49.744;7.012;2022-12-18T16:24:57;37.90;;;15.63;;
33453;SDS011;39400;49.744;7.012;2022-12-18T16:27:23;36.15;;;17.15;;
33453;SDS011;39400;49.744;7.012;2022-12-18T16:29:49;32.40;;;15.77;;
33453;SDS011;39400;49.744;7.012;2022-12-18T16:32:16;31.27;;;15.13;;
33453;SDS011;39400;49.744;7.012;2022-12-18T16:34:43;33.10;;;15.63;;
33453;SDS011;39400;49.744;7.012;2022-12-18T16:37:09;29.10;;;13.57;;
33453;SDS011;39400;49.744;7.012;2022-12-18T16:39:36;33.70;;;15.77;;
33453;SDS011;39400;49.744;7.012;2022-12-18T16:42:03;30.75;;;15.65;;
33453;SDS011;39400;49.744;7.012;2022-12-18T16:44:31;32.13;;;15.13;;
33453;SDS011;39400;49.744;7.012;2022-12-18T16:46:56;35.47;;;15.18;;
33453;SDS011;39400;49.744;7.012;2022-12-18T16:49:21;31.40;;;16.13;;
33453;SDS011;39400;49.744;7.012;2022-12-18T16:51:47;33.35;;;15.38;;
33453;SDS011;39400;49.744;7.012;2022-12-18T16:54:12;33.92;;;15.40;;
33453;SDS011;39400;49.744;7.012;2022-12-18T16:56:37;33.35;;;16.50;;
33453;SDS011;39400;49.744;7.012;2022-12-18T16:59:04;35.85;;;17.50;;